Amagi Galaxy — V7VE9 — position and weather

sailwx.info

Track history (hours):
 
Tides and Currents Weather Stations Pressure Air Temp Water Temp Dewpoint Dewpoint Depression Visibility Wind Speed Wind Dir Waves Ship Positions

Amagi Galaxy

Last reported at 2014-Oct-15 12:33 UTC. Time now 2014-Oct-22 03:24 UTC.
Position N 30°58' E 122°49'.

Length 152 m; draft 6.6 m.

Type: Tanker. MMSI: 538004105.

Date/timePositionNaut miles runAvg speedWind from/ knotsBaromVisibWave heightAir tempDewpointWater temp
2014-Oct-15 12:33N 30°58' E 122°49'1211.5
2014-Oct-15 11:33N 30°53' E 122°37'1413.8
2014-Oct-15 10:33N 30°50' E 122°21'1313.0
2014-Oct-15 09:33N 30°38' E 122°15'9 8.7
2014-Oct-15 08:32N 30°32' E 122°08'1111.0
2014-Oct-15 07:33N 30°31' E 121°55'8 8.4
2014-Oct-15 06:33N 30°38' E 121°49'14 0.4
2014-Oct-13 20:25N 30°31' E 121°35'5 6.0
2014-Oct-13 19:33N 30°30' E 121°41'7 7.1
2014-Oct-13 18:31N 30°31' E 121°49'8 8.5
2014-Oct-13 17:33N 30°32' E 121°59'9 9.1
2014-Oct-13 16:33N 30°33' E 122°09'8 8.4
2014-Oct-13 15:34N 30°40' E 122°14'1110.4
2014-Oct-13 14:31N 30°50' E 122°18'1111.5
2014-Oct-13 13:32N 30°55' E 122°31'16 8.2
2014-Oct-13 11:33N 31°07' E 122°17'2713.4
2014-Oct-13 09:33N 31°17' E 121°49'1212.3
2014-Oct-13 08:33N 31°23' E 121°36'9 9.3
2014-Oct-13 07:33N 31°28' E 121°27'1211.9
2014-Oct-13 06:33N 31°36' E 121°17'1413.3
2014-Oct-13 05:30N 31°45' E 121°04'1 0.5
2014-Oct-13 03:24N 31°46' E 121°04'0 0.0
2014-Oct-13 02:18N 31°46' E 121°04'0 0.0
2014-Oct-13 01:18N 31°46' E 121°04'0 0.0
2014-Oct-12 21:21N 31°46' E 121°04'0 0.2
2014-Oct-12 20:24N 31°46' E 121°04'0 0.0
2014-Oct-12 12:24N 31°46' E 121°04'0 0.0
2014-Oct-12 11:27N 31°46' E 121°04'1 1.4
2014-Oct-12 10:32N 31°46' E 121°03'1111.2
2014-Oct-12 09:34N 31°53' E 120°53'1111.1
2014-Oct-12 08:33N 32°00' E 120°43'1110.8
2014-Oct-12 07:33N 32°04' E 120°31'1312.6
2014-Oct-12 06:34N 31°57' E 120°18'1010.2
2014-Oct-12 05:34N 31°56' E 120°06'0 0.0
2014-Oct-12 04:28N 31°56' E 120°06'0 0.1
2014-Oct-12 03:31N 31°56' E 120°06'0 0.0
2014-Oct-12 02:25N 31°56' E 120°06'0 0.1
2014-Oct-12 01:31N 31°56' E 120°06'0 0.0
2014-Oct-12 00:22N 31°56' E 120°06'0 0.1
2014-Oct-11 23:22N 31°56' E 120°06'0 0.0
2014-Oct-11 22:28N 31°56' E 120°06'0 0.0
2014-Oct-11 21:28N 31°56' E 120°06'0 0.0
2014-Oct-11 20:28N 31°56' E 120°06'0 0.0
2014-Oct-11 19:28N 31°56' E 120°06'0 0.0
2014-Oct-11 18:31N 31°56' E 120°06'0 0.0
2014-Oct-11 17:31N 31°56' E 120°06'0 0.0
2014-Oct-11 16:31N 31°56' E 120°06'0 0.5
2014-Oct-11 15:33N 31°56' E 120°07'9 8.5
2014-Oct-11 14:33N 31°57' E 120°17'9 9.0
2014-Oct-11 13:33N 32°03' E 120°25'7 7.3
2014-Oct-11 12:33N 32°03' E 120°34'9 9.1
2014-Oct-11 11:33N 32°00' E 120°44'10 9.6
2014-Oct-11 10:33N 31°54' E 120°53'1010.2
2014-Oct-11 09:33N 31°47' E 121°01'1312.4
2014-Oct-11 08:30N 31°39' E 121°13'1212.3
2014-Oct-11 07:31N 31°31' E 121°24'9 9.8
2014-Oct-11 06:33N 31°25' E 121°32'1110.7
2014-Oct-11 05:33N 31°19' E 121°43'1413.6
2014-Oct-11 04:33N 31°09' E 121°53'2211.0
2014-Oct-11 02:32N 31°03' E 122°18'10 9.4
2014-Oct-11 01:27N 31°00' E 122°30'7 6.9
2014-Oct-11 00:30N 31°00' E 122°38'7 0.8
2014-Oct-10 15:33N 30°55' E 122°32'8 8.3
2014-Oct-10 14:33N 30°51' E 122°23'1010.3
2014-Oct-10 13:33N 30°43' E 122°16'1111.0
2014-Oct-10 12:34N 30°32' E 122°12'1110.6
2014-Oct-10 11:33N 30°31' E 121°60'  
2014-Oct-07 10:12N 30°32' E 121°60'812.7
2014-Oct-07 09:33N 30°33' E 122°09'1212.4
2014-Oct-07 08:33N 30°32' E 122°24'1110.9
2014-Oct-07 07:33N 30°30' E 122°36'1010.3
2014-Oct-07 06:33N 30°23' E 122°46'1110.6
2014-Oct-07 05:33N 30°17' E 122°55'71 6.3
2014-Oct-06 18:19N 29°06' E 122°56'  
Track history (hours):
 
Tides and Currents Weather Stations Pressure Air Temp Water Temp Dewpoint Dewpoint Depression Visibility Wind Speed Wind Dir Waves Ship Positions

Amagi Galaxy

Last reported at 2014-Oct-15 12:33 UTC. Time now 2014-Oct-22 03:24 UTC.
Position N 30°58' E 122°49'.

Length 152 m; draft 6.6 m.

Type: Tanker. MMSI: 538004105.

Date/timePositionNaut miles runAvg speedWind from/ knotsBaromVisibWave heightAir tempDewpointWater temp
2014-Oct-15 12:33N 30°58' E 122°49'1211.5
2014-Oct-15 11:33N 30°53' E 122°37'1413.8
2014-Oct-15 10:33N 30°50' E 122°21'1313.0
2014-Oct-15 09:33N 30°38' E 122°15'9 8.7
2014-Oct-15 08:32N 30°32' E 122°08'1111.0
2014-Oct-15 07:33N 30°31' E 121°55'8 8.4
2014-Oct-15 06:33N 30°38' E 121°49'14 0.4
2014-Oct-13 20:25N 30°31' E 121°35'5 6.0
2014-Oct-13 19:33N 30°30' E 121°41'7 7.1
2014-Oct-13 18:31N 30°31' E 121°49'8 8.5
2014-Oct-13 17:33N 30°32' E 121°59'9 9.1
2014-Oct-13 16:33N 30°33' E 122°09'8 8.4
2014-Oct-13 15:34N 30°40' E 122°14'1110.4
2014-Oct-13 14:31N 30°50' E 122°18'1111.5
2014-Oct-13 13:32N 30°55' E 122°31'16 8.2
2014-Oct-13 11:33N 31°07' E 122°17'2713.4
2014-Oct-13 09:33N 31°17' E 121°49'1212.3
2014-Oct-13 08:33N 31°23' E 121°36'9 9.3
2014-Oct-13 07:33N 31°28' E 121°27'1211.9
2014-Oct-13 06:33N 31°36' E 121°17'1413.3
2014-Oct-13 05:30N 31°45' E 121°04'1 0.5
2014-Oct-13 03:24N 31°46' E 121°04'0 0.0
2014-Oct-13 02:18N 31°46' E 121°04'0 0.0
2014-Oct-13 01:18N 31°46' E 121°04'0 0.0
2014-Oct-12 21:21N 31°46' E 121°04'0 0.2
2014-Oct-12 20:24N 31°46' E 121°04'0 0.0
2014-Oct-12 12:24N 31°46' E 121°04'0 0.0
2014-Oct-12 11:27N 31°46' E 121°04'1 1.4
2014-Oct-12 10:32N 31°46' E 121°03'1111.2
2014-Oct-12 09:34N 31°53' E 120°53'1111.1
2014-Oct-12 08:33N 32°00' E 120°43'1110.8
2014-Oct-12 07:33N 32°04' E 120°31'1312.6
2014-Oct-12 06:34N 31°57' E 120°18'1010.2
2014-Oct-12 05:34N 31°56' E 120°06'0 0.0
2014-Oct-12 04:28N 31°56' E 120°06'0 0.1
2014-Oct-12 03:31N 31°56' E 120°06'0 0.0
2014-Oct-12 02:25N 31°56' E 120°06'0 0.1
2014-Oct-12 01:31N 31°56' E 120°06'0 0.0
2014-Oct-12 00:22N 31°56' E 120°06'0 0.1
2014-Oct-11 23:22N 31°56' E 120°06'0 0.0
2014-Oct-11 22:28N 31°56' E 120°06'0 0.0
2014-Oct-11 21:28N 31°56' E 120°06'0 0.0
2014-Oct-11 20:28N 31°56' E 120°06'0 0.0
2014-Oct-11 19:28N 31°56' E 120°06'0 0.0
2014-Oct-11 18:31N 31°56' E 120°06'0 0.0
2014-Oct-11 17:31N 31°56' E 120°06'0 0.0
2014-Oct-11 16:31N 31°56' E 120°06'0 0.5
2014-Oct-11 15:33N 31°56' E 120°07'9 8.5
2014-Oct-11 14:33N 31°57' E 120°17'9 9.0
2014-Oct-11 13:33N 32°03' E 120°25'7 7.3
2014-Oct-11 12:33N 32°03' E 120°34'9 9.1
2014-Oct-11 11:33N 32°00' E 120°44'10 9.6
2014-Oct-11 10:33N 31°54' E 120°53'1010.2
2014-Oct-11 09:33N 31°47' E 121°01'1312.4
2014-Oct-11 08:30N 31°39' E 121°13'1212.3
2014-Oct-11 07:31N 31°31' E 121°24'9 9.8
2014-Oct-11 06:33N 31°25' E 121°32'1110.7
2014-Oct-11 05:33N 31°19' E 121°43'1413.6
2014-Oct-11 04:33N 31°09' E 121°53'2211.0
2014-Oct-11 02:32N 31°03' E 122°18'10 9.4
2014-Oct-11 01:27N 31°00' E 122°30'7 6.9
2014-Oct-11 00:30N 31°00' E 122°38'7 0.8
2014-Oct-10 15:33N 30°55' E 122°32'8 8.3
2014-Oct-10 14:33N 30°51' E 122°23'1010.3
2014-Oct-10 13:33N 30°43' E 122°16'1111.0
2014-Oct-10 12:34N 30°32' E 122°12'1110.6
2014-Oct-10 11:33N 30°31' E 121°60'  
2014-Oct-07 10:12N 30°32' E 121°60'812.7
2014-Oct-07 09:33N 30°33' E 122°09'1212.4
2014-Oct-07 08:33N 30°32' E 122°24'1110.9
2014-Oct-07 07:33N 30°30' E 122°36'1010.3
2014-Oct-07 06:33N 30°23' E 122°46'1110.6
2014-Oct-07 05:33N 30°17' E 122°55'71 6.3
2014-Oct-06 18:19N 29°06' E 122°56'  

Dump ship's entire track history